sensor_id;sensor_type;location;lat;lon;timestamp;temperature;humidity
38938;DHT22;24727;51.974;20.868;2023-07-20T00:01:24;17.70;1.00
38938;DHT22;24727;51.974;20.868;2023-07-20T00:03:50;17.50;1.00
38938;DHT22;24727;51.974;20.868;2023-07-20T00:06:23;17.60;1.00
38938;DHT22;24727;51.974;20.868;2023-07-20T00:08:53;17.90;1.00
38938;DHT22;24727;51.974;20.868;2023-07-20T00:11:20;17.90;1.00
38938;DHT22;24727;51.974;20.868;2023-07-20T00:13:46;17.70;1.00
38938;DHT22;24727;51.974;20.868;2023-07-20T00:16:12;17.70;1.00
38938;DHT22;24727;51.974;20.868;2023-07-20T00:18:37;17.70;1.00
38938;DHT22;24727;51.974;20.868;2023-07-20T00:21:03;17.80;1.00
38938;DHT22;24727;51.974;20.868;2023-07-20T00:23:29;17.80;1.00
38938;DHT22;24727;51.974;20.868;2023-07-20T00:25:55;17.80;1.00
38938;DHT22;24727;51.974;20.868;2023-07-20T00:28:21;17.80;1.00
38938;DHT22;24727;51.974;20.868;2023-07-20T00:30:47;17.70;1.00
38938;DHT22;24727;51.974;20.868;2023-07-20T00:33:16;17.60;1.00
38938;DHT22;24727;51.974;20.868;2023-07-20T00:35:42;17.50;1.00
38938;DHT22;24727;51.974;20.868;2023-07-20T00:38:07;17.40;1.00
38938;DHT22;24727;51.974;20.868;2023-07-20T00:40:37;17.30;1.00
38938;DHT22;24727;51.974;20.868;2023-07-20T00:43:03;17.40;1.00
38938;DHT22;24727;51.974;20.868;2023-07-20T00:45:29;17.40;1.00
38938;DHT22;24727;51.974;20.868;2023-07-20T00:47:55;17.20;1.00
38938;DHT22;24727;51.974;20.868;2023-07-20T00:50:22;16.70;1.00
38938;DHT22;24727;51.974;20.868;2023-07-20T00:52:49;16.40;1.00
38938;DHT22;24727;51.974;20.868;2023-07-20T00:55:15;16.30;1.00
38938;DHT22;24727;51.974;20.868;2023-07-20T00:57:41;16.20;1.00
38938;DHT22;24727;51.974;20.868;2023-07-20T01:00:07;16.10;1.00
38938;DHT22;24727;51.974;20.868;2023-07-20T01:02:33;16.10;1.00
38938;DHT22;24727;51.974;20.868;2023-07-20T01:04:59;16.10;1.00
38938;DHT22;24727;51.974;20.868;2023-07-20T01:07:35;16.10;1.00
38938;DHT22;24727;51.974;20.868;2023-07-20T01:10:21;16.10;1.00
38938;DHT22;24727;51.974;20.868;2023-07-20T01:12:55;16.20;1.00
38938;DHT22;24727;51.974;20.868;2023-07-20T01:15:21;16.30;1.00
38938;DHT22;24727;51.974;20.868;2023-07-20T01:17:47;16.40;1.00
38938;DHT22;24727;51.974;20.868;2023-07-20T01:20:14;16.50;1.00
38938;DHT22;24727;51.974;20.868;2023-07-20T01:29:05;16.50;1.00
38938;DHT22;24727;51.974;20.868;2023-07-20T01:31:38;16.60;1.00
38938;DHT22;24727;51.974;20.868;2023-07-20T01:34:06;16.70;1.00
38938;DHT22;24727;51.974;20.868;2023-07-20T01:36:36;16.70;1.00
38938;DHT22;24727;51.974;20.868;2023-07-20T01:39:03;16.70;1.00
38938;DHT22;24727;51.974;20.868;2023-07-20T01:41:30;16.70;1.00
38938;DHT22;24727;51.974;20.868;2023-07-20T01:43:59;16.80;1.00
38938;DHT22;24727;51.974;20.868;2023-07-20T01:46:25;16.80;1.00
38938;DHT22;24727;51.974;20.868;2023-07-20T01:48:52;16.80;1.00
38938;DHT22;24727;51.974;20.868;2023-07-20T01:51:18;16.80;1.00
38938;DHT22;24727;51.974;20.868;2023-07-20T01:53:44;16.70;1.00
38938;DHT22;24727;51.974;20.868;2023-07-20T01:56:10;16.70;1.00
38938;DHT22;24727;51.974;20.868;2023-07-20T01:58:38;16.70;1.00
38938;DHT22;24727;51.974;20.868;2023-07-20T02:01:04;16.70;1.00
38938;DHT22;24727;51.974;20.868;2023-07-20T02:03:30;16.70;1.00
38938;DHT22;24727;51.974;20.868;2023-07-20T02:05:56;16.70;1.00
38938;DHT22;24727;51.974;20.868;2023-07-20T02:08:22;16.60;1.00
38938;DHT22;24727;51.974;20.868;2023-07-20T02:10:49;16.50;1.00
38938;DHT22;24727;51.974;20.868;2023-07-20T02:13:15;16.40;1.00
38938;DHT22;24727;51.974;20.868;2023-07-20T02:15:41;16.10;1.00
38938;DHT22;24727;51.974;20.868;2023-07-20T02:18:08;15.70;1.00
38938;DHT22;24727;51.974;20.868;2023-07-20T02:20:35;15.40;1.00
38938;DHT22;24727;51.974;20.868;2023-07-20T02:23:01;15.40;1.00
38938;DHT22;24727;51.974;20.868;2023-07-20T02:25:27;15.50;1.00
38938;DHT22;24727;51.974;20.868;2023-07-20T02:27:53;15.70;1.00
38938;DHT22;24727;51.974;20.868;2023-07-20T02:30:18;15.80;1.00
38938;DHT22;24727;51.974;20.868;2023-07-20T02:32:45;15.90;1.00
38938;DHT22;24727;51.974;20.868;2023-07-20T02:35:15;15.90;1.00
38938;DHT22;24727;51.974;20.868;2023-07-20T02:37:41;16.00;1.00
38938;DHT22;24727;51.974;20.868;2023-07-20T02:40:07;16.00;1.00
38938;DHT22;24727;51.974;20.868;2023-07-20T02:42:33;15.80;1.00
38938;DHT22;24727;51.974;20.868;2023-07-20T02:44:59;15.50;1.00
38938;DHT22;24727;51.974;20.868;2023-07-20T02:47:25;15.40;1.00
38938;DHT22;24727;51.974;20.868;2023-07-20T02:49:50;15.50;1.00
38938;DHT22;24727;51.974;20.868;2023-07-20T02:52:16;15.50;1.00
38938;DHT22;24727;51.974;20.868;2023-07-20T02:54:42;15.50;1.00
38938;DHT22;24727;51.974;20.868;2023-07-20T02:57:08;15.50;1.00
38938;DHT22;24727;51.974;20.868;2023-07-20T02:59:34;15.50;1.00
38938;DHT22;24727;51.974;20.868;2023-07-20T03:02:00;15.50;1.00
38938;DHT22;24727;51.974;20.868;2023-07-20T03:04:26;15.60;1.00
38938;DHT22;24727;51.974;20.868;2023-07-20T03:06:53;15.50;1.00
38938;DHT22;24727;51.974;20.868;2023-07-20T03:09:19;15.50;1.00
38938;DHT22;24727;51.974;20.868;2023-07-20T03:11:45;15.50;1.00
38938;DHT22;24727;51.974;20.868;2023-07-20T03:14:11;15.40;1.00
38938;DHT22;24727;51.974;20.868;2023-07-20T03:16:37;15.30;1.00
38938;DHT22;24727;51.974;20.868;2023-07-20T03:19:03;15.20;1.00
38938;DHT22;24727;51.974;20.868;2023-07-20T03:21:31;15.20;1.00
38938;DHT22;24727;51.974;20.868;2023-07-20T03:23:57;15.20;1.00
38938;DHT22;24727;51.974;20.868;2023-07-20T03:26:23;15.20;1.00
38938;DHT22;24727;51.974;20.868;2023-07-20T03:28:49;15.30;1.00
38938;DHT22;24727;51.974;20.868;2023-07-20T03:31:14;15.40;1.00
38938;DHT22;24727;51.974;20.868;2023-07-20T03:33:40;15.40;1.00
38938;DHT22;24727;51.974;20.868;2023-07-20T03:36:06;15.40;1.00
38938;DHT22;24727;51.974;20.868;2023-07-20T03:38:32;15.40;1.00
38938;DHT22;24727;51.974;20.868;2023-07-20T03:41:00;15.40;1.00
38938;DHT22;24727;51.974;20.868;2023-07-20T03:43:27;15.40;1.00
38938;DHT22;24727;51.974;20.868;2023-07-20T03:45:53;15.50;1.00
38938;DHT22;24727;51.974;20.868;2023-07-20T03:48:24;15.50;1.00
38938;DHT22;24727;51.974;20.868;2023-07-20T03:50:51;15.40;1.00
38938;DHT22;24727;51.974;20.868;2023-07-20T03:53:17;15.30;1.00
38938;DHT22;24727;51.974;20.868;2023-07-20T03:55:48;15.20;1.00
38938;DHT22;24727;51.974;20.868;2023-07-20T03:58:14;15.10;1.00
38938;DHT22;24727;51.974;20.868;2023-07-20T04:00:44;15.10;1.00
38938;DHT22;24727;51.974;20.868;2023-07-20T04:03:10;15.00;1.00
38938;DHT22;24727;51.974;20.868;2023-07-20T04:05:36;14.90;1.00
38938;DHT22;24727;51.974;20.868;2023-07-20T04:08:02;14.90;1.00
38938;DHT22;24727;51.974;20.868;2023-07-20T04:10:28;14.80;1.00
38938;DHT22;24727;51.974;20.868;2023-07-20T04:12:53;14.80;1.00
38938;DHT22;24727;51.974;20.868;2023-07-20T04:15:19;14.80;1.00
38938;DHT22;24727;51.974;20.868;2023-07-20T04:17:45;14.70;1.00
38938;DHT22;24727;51.974;20.868;2023-07-20T04:20:11;14.70;1.00
38938;DHT22;24727;51.974;20.868;2023-07-20T04:22:37;14.70;1.00
38938;DHT22;24727;51.974;20.868;2023-07-20T04:25:04;14.70;1.10
38938;DHT22;24727;51.974;20.868;2023-07-20T04:27:30;14.70;2.20
38938;DHT22;24727;51.974;20.868;2023-07-20T04:29:58;14.70;5.90
38938;DHT22;24727;51.974;20.868;2023-07-20T04:32:25;14.70;5.60
38938;DHT22;24727;51.974;20.868;2023-07-20T04:34:51;14.70;8.40
38938;DHT22;24727;51.974;20.868;2023-07-20T04:37:17;14.70;11.10
38938;DHT22;24727;51.974;20.868;2023-07-20T04:39:43;14.70;9.20
38938;DHT22;24727;51.974;20.868;2023-07-20T04:42:09;14.80;4.40
38938;DHT22;24727;51.974;20.868;2023-07-20T04:44:34;14.80;1.00
38938;DHT22;24727;51.974;20.868;2023-07-20T04:47:00;14.90;1.00
38938;DHT22;24727;51.974;20.868;2023-07-20T04:49:26;14.90;3.10
38938;DHT22;24727;51.974;20.868;2023-07-20T04:51:52;14.90;4.70
38938;DHT22;24727;51.974;20.868;2023-07-20T04:54:18;14.80;8.00
38938;DHT22;24727;51.974;20.868;2023-07-20T04:56:44;14.80;9.40
38938;DHT22;24727;51.974;20.868;2023-07-20T04:59:10;14.80;12.60
38938;DHT22;24727;51.974;20.868;2023-07-20T05:01:36;14.80;15.90
38938;DHT22;24727;51.974;20.868;2023-07-20T05:04:02;14.70;17.40
38938;DHT22;24727;51.974;20.868;2023-07-20T05:06:28;14.70;19.40
38938;DHT22;24727;51.974;20.868;2023-07-20T05:08:54;14.70;19.90
38938;DHT22;24727;51.974;20.868;2023-07-20T05:11:20;14.70;22.00
38938;DHT22;24727;51.974;20.868;2023-07-20T05:13:46;14.70;21.70
38938;DHT22;24727;51.974;20.868;2023-07-20T05:16:11;14.70;21.70
38938;DHT22;24727;51.974;20.868;2023-07-20T05:18:37;14.70;20.20
38938;DHT22;24727;51.974;20.868;2023-07-20T05:21:03;14.80;16.90
38938;DHT22;24727;51.974;20.868;2023-07-20T05:23:29;14.80;3.70
38938;DHT22;24727;51.974;20.868;2023-07-20T05:25:58;14.90;1.00
38938;DHT22;24727;51.974;20.868;2023-07-20T05:28:25;15.00;1.00
38938;DHT22;24727;51.974;20.868;2023-07-20T05:30:54;15.10;1.00
38938;DHT22;24727;51.974;20.868;2023-07-20T05:33:21;15.30;1.00
38938;DHT22;24727;51.974;20.868;2023-07-20T05:35:47;15.30;1.00
38938;DHT22;24727;51.974;20.868;2023-07-20T05:38:13;15.40;1.00
38938;DHT22;24727;51.974;20.868;2023-07-20T05:40:44;15.40;1.00
38938;DHT22;24727;51.974;20.868;2023-07-20T05:43:10;15.50;1.00
38938;DHT22;24727;51.974;20.868;2023-07-20T05:45:36;15.60;1.00
38938;DHT22;24727;51.974;20.868;2023-07-20T05:48:02;15.70;1.00
38938;DHT22;24727;51.974;20.868;2023-07-20T05:50:28;15.70;1.00
38938;DHT22;24727;51.974;20.868;2023-07-20T05:52:55;15.80;1.00
38938;DHT22;24727;51.974;20.868;2023-07-20T05:55:20;15.90;1.00
38938;DHT22;24727;51.974;20.868;2023-07-20T06:08:57;15.80;1.00
38938;DHT22;24727;51.974;20.868;2023-07-20T06:11:23;16.20;1.00
38938;DHT22;24727;51.974;20.868;2023-07-20T06:13:49;16.20;1.00
38938;DHT22;24727;51.974;20.868;2023-07-20T06:16:15;16.30;1.00
38938;DHT22;24727;51.974;20.868;2023-07-20T06:18:41;16.40;1.00
38938;DHT22;24727;51.974;20.868;2023-07-20T06:21:07;16.50;1.00
38938;DHT22;24727;51.974;20.868;2023-07-20T06:23:32;16.40;1.00
38938;DHT22;24727;51.974;20.868;2023-07-20T06:25:58;16.20;1.00
38938;DHT22;24727;51.974;20.868;2023-07-20T06:28:24;16.20;1.00
38938;DHT22;24727;51.974;20.868;2023-07-20T06:30:50;16.40;1.00
38938;DHT22;24727;51.974;20.868;2023-07-20T06:33:17;16.40;1.00
38938;DHT22;24727;51.974;20.868;2023-07-20T06:35:43;16.50;1.00
38938;DHT22;24727;51.974;20.868;2023-07-20T06:38:08;16.40;1.00
38938;DHT22;24727;51.974;20.868;2023-07-20T06:40:34;16.30;1.00
38938;DHT22;24727;51.974;20.868;2023-07-20T06:43:00;16.30;1.00
38938;DHT22;24727;51.974;20.868;2023-07-20T06:45:26;16.20;1.00
38938;DHT22;24727;51.974;20.868;2023-07-20T06:47:52;16.10;1.00
38938;DHT22;24727;51.974;20.868;2023-07-20T06:50:17;16.00;1.00
38938;DHT22;24727;51.974;20.868;2023-07-20T06:52:43;16.00;1.00
38938;DHT22;24727;51.974;20.868;2023-07-20T06:55:09;16.00;1.00
38938;DHT22;24727;51.974;20.868;2023-07-20T06:57:35;16.00;1.00
38938;DHT22;24727;51.974;20.868;2023-07-20T07:00:01;15.90;1.00
38938;DHT22;24727;51.974;20.868;2023-07-20T07:02:29;15.80;1.00
38938;DHT22;24727;51.974;20.868;2023-07-20T07:04:55;15.80;1.00
38938;DHT22;24727;51.974;20.868;2023-07-20T07:07:21;15.80;1.00
38938;DHT22;24727;51.974;20.868;2023-07-20T07:09:47;15.80;1.00
38938;DHT22;24727;51.974;20.868;2023-07-20T07:12:13;15.80;1.00
38938;DHT22;24727;51.974;20.868;2023-07-20T07:14:39;15.80;1.00
38938;DHT22;24727;51.974;20.868;2023-07-20T07:17:06;15.70;1.00
38938;DHT22;24727;51.974;20.868;2023-07-20T07:19:32;15.70;1.00
38938;DHT22;24727;51.974;20.868;2023-07-20T07:21:58;15.70;1.00
38938;DHT22;24727;51.974;20.868;2023-07-20T07:24:24;15.70;1.00
38938;DHT22;24727;51.974;20.868;2023-07-20T07:26:50;15.70;1.00
38938;DHT22;24727;51.974;20.868;2023-07-20T07:29:16;15.60;1.00
38938;DHT22;24727;51.974;20.868;2023-07-20T07:31:41;15.60;1.00
38938;DHT22;24727;51.974;20.868;2023-07-20T07:34:08;15.70;1.00
38938;DHT22;24727;51.974;20.868;2023-07-20T07:36:35;15.70;1.00
38938;DHT22;24727;51.974;20.868;2023-07-20T07:39:01;15.70;1.00
38938;DHT22;24727;51.974;20.868;2023-07-20T07:41:26;15.70;1.00
38938;DHT22;24727;51.974;20.868;2023-07-20T07:43:52;15.60;1.00
38938;DHT22;24727;51.974;20.868;2023-07-20T07:46:18;15.70;1.00
38938;DHT22;24727;51.974;20.868;2023-07-20T07:48:44;15.70;1.00
38938;DHT22;24727;51.974;20.868;2023-07-20T07:51:10;15.80;1.00
38938;DHT22;24727;51.974;20.868;2023-07-20T07:53:36;15.90;1.00
38938;DHT22;24727;51.974;20.868;2023-07-20T07:56:03;16.00;1.00
38938;DHT22;24727;51.974;20.868;2023-07-20T07:58:29;16.00;1.00
38938;DHT22;24727;51.974;20.868;2023-07-20T08:00:55;15.90;1.00
38938;DHT22;24727;51.974;20.868;2023-07-20T08:03:22;15.90;1.00
38938;DHT22;24727;51.974;20.868;2023-07-20T08:05:49;15.90;1.00
38938;DHT22;24727;51.974;20.868;2023-07-20T08:08:15;15.90;1.00
38938;DHT22;24727;51.974;20.868;2023-07-20T08:10:41;15.90;1.00
38938;DHT22;24727;51.974;20.868;2023-07-20T08:13:07;15.90;1.00
38938;DHT22;24727;51.974;20.868;2023-07-20T08:15:33;15.90;1.00
38938;DHT22;24727;51.974;20.868;2023-07-20T08:17:59;15.90;1.00
38938;DHT22;24727;51.974;20.868;2023-07-20T08:20:24;15.80;1.00
38938;DHT22;24727;51.974;20.868;2023-07-20T08:22:55;15.80;1.00
38938;DHT22;24727;51.974;20.868;2023-07-20T08:25:21;15.80;1.00
38938;DHT22;24727;51.974;20.868;2023-07-20T08:27:47;15.80;1.00
38938;DHT22;24727;51.974;20.868;2023-07-20T08:30:13;15.90;1.00
38938;DHT22;24727;51.974;20.868;2023-07-20T08:32:39;16.00;1.00
38938;DHT22;24727;51.974;20.868;2023-07-20T08:35:05;16.00;1.00
38938;DHT22;24727;51.974;20.868;2023-07-20T08:37:31;16.00;1.00
38938;DHT22;24727;51.974;20.868;2023-07-20T08:39:58;15.90;1.00
38938;DHT22;24727;51.974;20.868;2023-07-20T08:42:24;15.80;1.00
38938;DHT22;24727;51.974;20.868;2023-07-20T08:44:52;15.70;2.00
38938;DHT22;24727;51.974;20.868;2023-07-20T08:47:18;15.70;3.10
38938;DHT22;24727;51.974;20.868;2023-07-20T08:49:48;15.70;5.30
38938;DHT22;24727;51.974;20.868;2023-07-20T08:52:14;15.70;4.80
38938;DHT22;24727;51.974;20.868;2023-07-20T08:54:40;15.70;4.80
38938;DHT22;24727;51.974;20.868;2023-07-20T08:57:06;15.80;5.10
38938;DHT22;24727;51.974;20.868;2023-07-20T08:59:36;15.90;5.10
38938;DHT22;24727;51.974;20.868;2023-07-20T09:02:02;16.00;2.30
38938;DHT22;24727;51.974;20.868;2023-07-20T09:04:30;16.00;1.00
38938;DHT22;24727;51.974;20.868;2023-07-20T09:06:57;16.10;1.00
38938;DHT22;24727;51.974;20.868;2023-07-20T09:09:23;16.20;1.00
38938;DHT22;24727;51.974;20.868;2023-07-20T09:11:49;16.10;1.00
38938;DHT22;24727;51.974;20.868;2023-07-20T09:14:16;16.10;1.00
38938;DHT22;24727;51.974;20.868;2023-07-20T09:16:55;16.10;1.90
38938;DHT22;24727;51.974;20.868;2023-07-20T09:19:22;16.00;4.50
38938;DHT22;24727;51.974;20.868;2023-07-20T09:21:49;16.10;8.20
38938;DHT22;24727;51.974;20.868;2023-07-20T09:24:18;16.20;10.40
38938;DHT22;24727;51.974;20.868;2023-07-20T09:26:45;16.20;7.20
38938;DHT22;24727;51.974;20.868;2023-07-20T09:29:14;16.20;1.00
38938;DHT22;24727;51.974;20.868;2023-07-20T09:31:40;16.30;2.80
38938;DHT22;24727;51.974;20.868;2023-07-20T09:34:07;16.40;1.00
38938;DHT22;24727;51.974;20.868;2023-07-20T09:36:34;16.50;1.00
38938;DHT22;24727;51.974;20.868;2023-07-20T09:39:01;16.60;1.00
38938;DHT22;24727;51.974;20.868;2023-07-20T09:41:28;16.70;1.00
38938;DHT22;24727;51.974;20.868;2023-07-20T09:43:54;16.90;1.00
38938;DHT22;24727;51.974;20.868;2023-07-20T09:46:20;17.10;1.00
38938;DHT22;24727;51.974;20.868;2023-07-20T09:48:52;17.10;1.00
38938;DHT22;24727;51.974;20.868;2023-07-20T09:51:22;17.20;1.00
38938;DHT22;24727;51.974;20.868;2023-07-20T09:53:49;17.30;1.00
38938;DHT22;24727;51.974;20.868;2023-07-20T09:56:21;17.40;1.00
38938;DHT22;24727;51.974;20.868;2023-07-20T09:58:48;17.60;1.00
38938;DHT22;24727;51.974;20.868;2023-07-20T10:01:19;18.00;1.00
38938;DHT22;24727;51.974;20.868;2023-07-20T10:03:47;18.20;1.00
38938;DHT22;24727;51.974;20.868;2023-07-20T10:06:21;18.30;1.00
38938;DHT22;24727;51.974;20.868;2023-07-20T10:08:51;18.40;1.00
38938;DHT22;24727;51.974;20.868;2023-07-20T10:11:19;18.70;1.00
38938;DHT22;24727;51.974;20.868;2023-07-20T10:13:51;18.80;1.00
38938;DHT22;24727;51.974;20.868;2023-07-20T10:16:29;18.90;1.00
38938;DHT22;24727;51.974;20.868;2023-07-20T10:19:07;19.00;1.00
38938;DHT22;24727;51.974;20.868;2023-07-20T10:21:40;18.90;1.00
38938;DHT22;24727;51.974;20.868;2023-07-20T10:24:08;19.30;1.00
38938;DHT22;24727;51.974;20.868;2023-07-20T10:26:36;19.40;1.00
38938;DHT22;24727;51.974;20.868;2023-07-20T10:29:02;19.60;1.00
38938;DHT22;24727;51.974;20.868;2023-07-20T10:31:29;19.60;1.00
38938;DHT22;24727;51.974;20.868;2023-07-20T10:33:56;19.40;1.00
38938;DHT22;24727;51.974;20.868;2023-07-20T10:36:27;19.40;1.00
38938;DHT22;24727;51.974;20.868;2023-07-20T10:38:54;19.00;1.00
38938;DHT22;24727;51.974;20.868;2023-07-20T10:41:29;18.70;1.00
38938;DHT22;24727;51.974;20.868;2023-07-20T10:44:02;18.60;1.00
38938;DHT22;24727;51.974;20.868;2023-07-20T10:46:42;18.70;1.00
38938;DHT22;24727;51.974;20.868;2023-07-20T10:49:10;19.00;1.00
38938;DHT22;24727;51.974;20.868;2023-07-20T10:51:47;19.10;1.00
38938;DHT22;24727;51.974;20.868;2023-07-20T10:56:44;19.60;1.00
38938;DHT22;24727;51.974;20.868;2023-07-20T10:59:19;19.70;1.00
38938;DHT22;24727;51.974;20.868;2023-07-20T11:01:47;19.60;1.00
38938;DHT22;24727;51.974;20.868;2023-07-20T11:04:16;19.70;1.00
38938;DHT22;24727;51.974;20.868;2023-07-20T11:06:45;19.60;1.00
38938;DHT22;24727;51.974;20.868;2023-07-20T11:09:15;19.60;1.00
38938;DHT22;24727;51.974;20.868;2023-07-20T11:11:42;19.60;1.00
38938;DHT22;24727;51.974;20.868;2023-07-20T11:14:30;19.50;1.00
38938;DHT22;24727;51.974;20.868;2023-07-20T11:17:14;19.60;1.00
38938;DHT22;24727;51.974;20.868;2023-07-20T11:19:40;19.90;1.00
38938;DHT22;24727;51.974;20.868;2023-07-20T11:22:07;19.90;1.00
38938;DHT22;24727;51.974;20.868;2023-07-20T11:24:40;19.80;1.00
38938;DHT22;24727;51.974;20.868;2023-07-20T11:27:06;19.80;1.00
38938;DHT22;24727;51.974;20.868;2023-07-20T11:29:32;20.00;1.00
38938;DHT22;24727;51.974;20.868;2023-07-20T11:31:57;20.00;1.00
38938;DHT22;24727;51.974;20.868;2023-07-20T11:34:27;20.00;1.00
38938;DHT22;24727;51.974;20.868;2023-07-20T11:36:53;20.00;1.00
38938;DHT22;24727;51.974;20.868;2023-07-20T11:39:22;19.90;1.00
38938;DHT22;24727;51.974;20.868;2023-07-20T11:44:17;19.90;1.00
38938;DHT22;24727;51.974;20.868;2023-07-20T11:46:44;20.00;1.00
38938;DHT22;24727;51.974;20.868;2023-07-20T11:49:12;19.90;1.00
38938;DHT22;24727;51.974;20.868;2023-07-20T11:51:39;20.00;1.00
38938;DHT22;24727;51.974;20.868;2023-07-20T11:54:07;20.10;1.00
38938;DHT22;24727;51.974;20.868;2023-07-20T11:56:33;20.10;1.00
38938;DHT22;24727;51.974;20.868;2023-07-20T11:59:00;20.20;1.00
38938;DHT22;24727;51.974;20.868;2023-07-20T12:01:28;20.30;1.00
38938;DHT22;24727;51.974;20.868;2023-07-20T12:04:01;20.20;1.00
38938;DHT22;24727;51.974;20.868;2023-07-20T12:06:28;20.00;1.00
38938;DHT22;24727;51.974;20.868;2023-07-20T12:08:59;19.80;1.00
38938;DHT22;24727;51.974;20.868;2023-07-20T12:11:36;19.80;1.00
38938;DHT22;24727;51.974;20.868;2023-07-20T12:14:08;19.30;1.00
38938;DHT22;24727;51.974;20.868;2023-07-20T12:16:35;19.00;1.00
38938;DHT22;24727;51.974;20.868;2023-07-20T12:19:04;18.90;1.00
38938;DHT22;24727;51.974;20.868;2023-07-20T12:21:31;18.90;1.00
38938;DHT22;24727;51.974;20.868;2023-07-20T12:23:58;18.80;1.00
38938;DHT22;24727;51.974;20.868;2023-07-20T12:26:25;18.70;1.00
38938;DHT22;24727;51.974;20.868;2023-07-20T12:28:52;18.70;1.00
38938;DHT22;24727;51.974;20.868;2023-07-20T12:31:18;18.50;1.00
38938;DHT22;24727;51.974;20.868;2023-07-20T12:33:44;18.50;1.00
38938;DHT22;24727;51.974;20.868;2023-07-20T12:36:10;18.50;1.00
38938;DHT22;24727;51.974;20.868;2023-07-20T12:38:37;18.30;1.00
38938;DHT22;24727;51.974;20.868;2023-07-20T12:41:03;18.30;1.00
38938;DHT22;24727;51.974;20.868;2023-07-20T12:43:29;18.30;1.00
38938;DHT22;24727;51.974;20.868;2023-07-20T12:45:56;18.30;1.00
38938;DHT22;24727;51.974;20.868;2023-07-20T12:48:22;18.30;1.00
38938;DHT22;24727;51.974;20.868;2023-07-20T12:50:48;18.30;1.00
38938;DHT22;24727;51.974;20.868;2023-07-20T12:53:14;18.30;1.00
38938;DHT22;24727;51.974;20.868;2023-07-20T12:55:40;18.30;1.00
38938;DHT22;24727;51.974;20.868;2023-07-20T12:58:11;18.30;1.00
38938;DHT22;24727;51.974;20.868;2023-07-20T13:00:37;18.30;1.00
38938;DHT22;24727;51.974;20.868;2023-07-20T13:03:03;18.40;1.00
38938;DHT22;24727;51.974;20.868;2023-07-20T13:05:32;18.30;1.00
38938;DHT22;24727;51.974;20.868;2023-07-20T13:07:58;18.30;1.00
38938;DHT22;24727;51.974;20.868;2023-07-20T13:10:24;18.30;1.00
38938;DHT22;24727;51.974;20.868;2023-07-20T13:12:50;18.50;1.00
38938;DHT22;24727;51.974;20.868;2023-07-20T13:15:17;18.70;1.00
38938;DHT22;24727;51.974;20.868;2023-07-20T13:17:44;18.60;1.00
38938;DHT22;24727;51.974;20.868;2023-07-20T13:20:12;18.60;1.00
38938;DHT22;24727;51.974;20.868;2023-07-20T13:22:39;18.70;1.00
38938;DHT22;24727;51.974;20.868;2023-07-20T13:25:06;18.70;1.00
38938;DHT22;24727;51.974;20.868;2023-07-20T13:27:32;18.70;1.00
38938;DHT22;24727;51.974;20.868;2023-07-20T13:29:59;18.70;1.00
38938;DHT22;24727;51.974;20.868;2023-07-20T13:32:26;18.80;1.00
38938;DHT22;24727;51.974;20.868;2023-07-20T13:34:52;18.90;1.00
38938;DHT22;24727;51.974;20.868;2023-07-20T13:37:18;18.80;1.00
38938;DHT22;24727;51.974;20.868;2023-07-20T13:39:44;18.50;1.00
38938;DHT22;24727;51.974;20.868;2023-07-20T13:42:10;18.50;1.00
38938;DHT22;24727;51.974;20.868;2023-07-20T13:44:37;18.50;1.00
38938;DHT22;24727;51.974;20.868;2023-07-20T13:47:04;18.40;1.00
38938;DHT22;24727;51.974;20.868;2023-07-20T13:49:33;18.40;1.00
38938;DHT22;24727;51.974;20.868;2023-07-20T13:51:59;18.40;1.00
38938;DHT22;24727;51.974;20.868;2023-07-20T13:54:25;18.30;1.00
38938;DHT22;24727;51.974;20.868;2023-07-20T13:56:51;18.30;1.00
38938;DHT22;24727;51.974;20.868;2023-07-20T13:59:18;18.30;1.00
38938;DHT22;24727;51.974;20.868;2023-07-20T14:01:45;18.40;1.00
38938;DHT22;24727;51.974;20.868;2023-07-20T14:04:11;18.50;1.00
38938;DHT22;24727;51.974;20.868;2023-07-20T14:06:36;18.60;1.00
38938;DHT22;24727;51.974;20.868;2023-07-20T14:09:04;18.70;1.00
38938;DHT22;24727;51.974;20.868;2023-07-20T14:11:30;18.60;1.00
38938;DHT22;24727;51.974;20.868;2023-07-20T14:13:55;18.60;1.00
38938;DHT22;24727;51.974;20.868;2023-07-20T14:16:24;18.60;1.00
38938;DHT22;24727;51.974;20.868;2023-07-20T14:18:50;18.70;1.00
38938;DHT22;24727;51.974;20.868;2023-07-20T14:21:17;18.80;1.00
38938;DHT22;24727;51.974;20.868;2023-07-20T14:23:51;18.80;1.00
38938;DHT22;24727;51.974;20.868;2023-07-20T14:26:17;19.00;1.00
38938;DHT22;24727;51.974;20.868;2023-07-20T14:28:43;19.00;1.00
38938;DHT22;24727;51.974;20.868;2023-07-20T14:31:09;18.80;1.00
38938;DHT22;24727;51.974;20.868;2023-07-20T14:33:35;18.90;1.00
38938;DHT22;24727;51.974;20.868;2023-07-20T14:36:02;19.10;1.00
38938;DHT22;24727;51.974;20.868;2023-07-20T14:38:33;19.10;1.00
38938;DHT22;24727;51.974;20.868;2023-07-20T14:40:59;19.40;1.00
38938;DHT22;24727;51.974;20.868;2023-07-20T14:43:24;19.80;1.00
38938;DHT22;24727;51.974;20.868;2023-07-20T14:45:50;20.20;1.00
38938;DHT22;24727;51.974;20.868;2023-07-20T14:48:16;20.50;1.00
38938;DHT22;24727;51.974;20.868;2023-07-20T14:50:42;20.80;1.00
38938;DHT22;24727;51.974;20.868;2023-07-20T14:53:12;20.90;1.00
38938;DHT22;24727;51.974;20.868;2023-07-20T14:55:39;20.60;1.00
38938;DHT22;24727;51.974;20.868;2023-07-20T14:58:05;20.20;1.00
38938;DHT22;24727;51.974;20.868;2023-07-20T15:00:31;19.90;1.00
38938;DHT22;24727;51.974;20.868;2023-07-20T15:02:57;20.10;1.00
38938;DHT22;24727;51.974;20.868;2023-07-20T15:05:24;20.20;1.00
38938;DHT22;24727;51.974;20.868;2023-07-20T15:07:50;19.80;1.00
38938;DHT22;24727;51.974;20.868;2023-07-20T15:10:16;19.80;1.00
38938;DHT22;24727;51.974;20.868;2023-07-20T15:12:42;19.50;1.00
38938;DHT22;24727;51.974;20.868;2023-07-20T15:15:09;19.60;1.00
38938;DHT22;24727;51.974;20.868;2023-07-20T15:17:37;19.60;1.00
38938;DHT22;24727;51.974;20.868;2023-07-20T15:20:04;19.50;1.00
38938;DHT22;24727;51.974;20.868;2023-07-20T15:22:31;19.30;1.00
38938;DHT22;24727;51.974;20.868;2023-07-20T15:24:57;19.30;1.00
38938;DHT22;24727;51.974;20.868;2023-07-20T15:27:23;19.30;1.00
38938;DHT22;24727;51.974;20.868;2023-07-20T15:29:50;19.20;1.00
38938;DHT22;24727;51.974;20.868;2023-07-20T15:32:18;19.30;1.00
38938;DHT22;24727;51.974;20.868;2023-07-20T15:34:45;19.30;1.00
38938;DHT22;24727;51.974;20.868;2023-07-20T15:37:13;19.40;1.00
38938;DHT22;24727;51.974;20.868;2023-07-20T15:39:39;19.50;1.00
38938;DHT22;24727;51.974;20.868;2023-07-20T15:42:06;19.50;1.00
38938;DHT22;24727;51.974;20.868;2023-07-20T15:44:32;19.60;1.00
38938;DHT22;24727;51.974;20.868;2023-07-20T15:46:58;19.60;1.00
38938;DHT22;24727;51.974;20.868;2023-07-20T15:49:24;19.60;1.00
38938;DHT22;24727;51.974;20.868;2023-07-20T15:51:54;19.60;1.00